Wetterdaten: Woche 12.06.17 - 18.06.17 (KW24)
Datum Zeit Temp. A. Pool Temp. Feuchte A. Luftdruck Regen Wind Richtung Sonnenschein ET UV Solar Taupunkt Windchill Windben Empfang
12.06.2017 00:00 15,2 C 25,6 C 75 % 1013,8 hPa 0,0 l/m 1,9 km/h (1 Bft) O-NO 0,00 h 0,000 mm 0,0 UV-I 0 W/m 10,8 C 15,2 C 3,0 km/h (1 Bft) 89,91 %
12.06.2017 01:00 14,7 C 25,6 C 79 % 1013,7 hPa 0,0 l/m 0,4 km/h (0 Bft) O 0,00 h 0,000 mm 0,0 UV-I 0 W/m 11,1 C 14,7 C 1,1 km/h (1 Bft) 98,43 %
12.06.2017 02:00 13,9 C 25,3 C 82 % 1013,5 hPa 0,0 l/m 2,7 km/h (1 Bft) S-SW 0,00 h 0,000 mm 0,0 UV-I 0 W/m 11,0 C 13,9 C 4,4 km/h (1 Bft) 97,64 %
12.06.2017 03:00 14,1 C 25,0 C 84 % 1013,3 hPa 0,0 l/m 2,5 km/h (1 Bft) S-SW 0,00 h 0,000 mm 0,0 UV-I 0 W/m 11,4 C 14,1 C 4,4 km/h (1 Bft) 95,54 %
12.06.2017 04:00 14,3 C 24,7 C 85 % 1013,1 hPa 0,0 l/m 1,7 km/h (1 Bft) S-SW 0,00 h 0,000 mm 0,0 UV-I 4 W/m 11,9 C 14,3 C 3,6 km/h (1 Bft) 97,30 %
12.06.2017 05:00 14,1 C 24,4 C 87 % 1013,0 hPa 0,0 l/m 0,6 km/h (0 Bft) S-SW 0,27 h 0,000 mm 0,0 UV-I 28 W/m 11,9 C 14,1 C 1,5 km/h (1 Bft) 97,85 %
12.06.2017 06:00 15,3 C 23,9 C 85 % 1013,0 hPa 0,0 l/m 0,0 km/h (0 Bft) N 0,60 h 0,025 mm 0,0 UV-I 114 W/m 12,9 C 15,3 C 0,1 km/h (0 Bft) 96,16 %
12.06.2017 07:00 17,5 C 23,6 C 79 % 1012,8 hPa 0,0 l/m 1,0 km/h (0 Bft) S-SW 0,40 h 0,051 mm 0,8 UV-I 220 W/m 13,7 C 17,5 C 2,5 km/h (1 Bft) 95,73 %
12.06.2017 08:00 19,4 C 23,3 C 72 % 1013,0 hPa 0,0 l/m 3,0 km/h (1 Bft) W 0,20 h 0,127 mm 1,3 UV-I 257 W/m 14,3 C 19,3 C 5,7 km/h (1 Bft) 98,08 %
12.06.2017 09:00 22,3 C 23,4 C 67 % 1013,2 hPa 0,0 l/m 5,4 km/h (1 Bft) W 0,77 h 0,178 mm 3,1 UV-I 566 W/m 15,7 C 22,2 C 9,8 km/h (2 Bft) 96,96 %
12.06.2017 10:00 25,7 C 23,9 C 58 % 1012,9 hPa 0,0 l/m 8,5 km/h (2 Bft) W-SW 1,00 h 0,381 mm 3,9 UV-I 566 W/m 16,8 C 25,2 C 14,2 km/h (3 Bft) 96,23 %
12.06.2017 11:00 27,4 C 23,9 C 51 % 1012,8 hPa 0,0 l/m 12,4 km/h (3 Bft) W 1,00 h 0,406 mm 6,0 UV-I 831 W/m 16,2 C 26,5 C 21,0 km/h (4 Bft) 95,86 %
12.06.2017 12:00 27,3 C 24,1 C 53 % 1012,8 hPa 0,0 l/m 7,4 km/h (2 Bft) W-SW 0,27 h 0,661 mm 4,0 UV-I 462 W/m 16,7 C 27,1 C 15,9 km/h (3 Bft) 95,93 %
12.06.2017 13:00 27,3 C 24,4 C 52 % 1012,6 hPa 0,0 l/m 12,5 km/h (3 Bft) W-SW 0,07 h 0,381 mm 3,2 UV-I 382 W/m 16,6 C 26,4 C 20,6 km/h (4 Bft) 98,08 %
12.06.2017 14:00 26,0 C 24,4 C 56 % 1012,7 hPa 0,0 l/m 11,3 km/h (2 Bft) W 0,00 h 0,355 mm 1,5 UV-I 190 W/m 16,4 C 25,1 C 20,5 km/h (4 Bft) 95,77 %
12.06.2017 15:00 25,5 C 24,4 C 62 % 1012,6 hPa 0,0 l/m 5,1 km/h (1 Bft) SW 0,20 h 0,204 mm 2,3 UV-I 329 W/m 17,6 C 25,4 C 9,9 km/h (2 Bft) 97,50 %
12.06.2017 16:00 27,4 C 24,4 C 54 % 1012,0 hPa 0,0 l/m 9,5 km/h (2 Bft) W-SW 0,92 h 0,279 mm 3,0 UV-I 599 W/m 17,4 C 27,0 C 16,3 km/h (3 Bft) 97,49 %
12.06.2017 17:00 26,6 C 24,4 C 56 % 1011,9 hPa 0,0 l/m 8,3 km/h (2 Bft) W-SW 0,03 h 0,457 mm 0,8 UV-I 155 W/m 17,0 C 26,2 C 14,4 km/h (3 Bft) 98,18 %
12.06.2017 18:00 24,9 C 24,4 C 62 % 1012,1 hPa 0,0 l/m 14,2 km/h (3 Bft) SW 0,40 h 0,153 mm 0,6 UV-I 190 W/m 17,0 C 23,4 C 22,9 km/h (4 Bft) 94,34 %
12.06.2017 19:00 23,2 C 24,4 C 67 % 1011,9 hPa 0,0 l/m 14,5 km/h (3 Bft) W-SW 0,43 h 0,203 mm 0,0 UV-I 123 W/m 16,9 C 21,3 C 22,4 km/h (4 Bft) 97,53 %
12.06.2017 20:00 22,1 C 24,4 C 73 % 1012,2 hPa 0,0 l/m 12,7 km/h (3 Bft) SW 0,13 h 0,152 mm 0,0 UV-I 25 W/m 17,2 C 20,4 C 18,9 km/h (3 Bft) 96,98 %
12.06.2017 21:00 21,6 C 24,4 C 77 % 1012,7 hPa 0,0 l/m 11,5 km/h (2 Bft) SW 0,00 h 0,076 mm 0,0 UV-I 5 W/m 17,4 C 20,0 C 17,6 km/h (3 Bft) 98,08 %
12.06.2017 22:00 20,9 C 24,3 C 80 % 1013,3 hPa 0,0 l/m 11,2 km/h (2 Bft) W-SW 0,00 h 0,051 mm 0,0 UV-I 0 W/m 17,2 C 19,2 C 17,0 km/h (3 Bft) 94,97 %
12.06.2017 23:00 20,8 C 23,9 C 72 % 1013,8 hPa 0,0 l/m 7,5 km/h (2 Bft) W-SW 0,00 h 0,026 mm 0,0 UV-I 0 W/m 15,6 C 20,2 C 13,0 km/h (3 Bft) 97,99 %
13.06.2017 00:00 21,0 C 23,9 C 56 % 1014,3 hPa 0,0 l/m 7,3 km/h (2 Bft) W-SW 0,00 h 0,000 mm 0,0 UV-I 0 W/m 11,8 C 20,6 C 12,0 km/h (2 Bft) 96,94 %
13.06.2017 01:00 20,3 C 23,9 C 51 % 1014,8 hPa 0,0 l/m 8,2 km/h (2 Bft) W-SW 0,00 h 0,051 mm 0,0 UV-I 0 W/m 9,9 C 19,6 C 14,3 km/h (3 Bft) 98,65 %
13.06.2017 02:00 19,4 C 23,9 C 54 % 1015,1 hPa 0,0 l/m 9,7 km/h (2 Bft) W-SW 0,00 h 0,076 mm 0,0 UV-I 0 W/m 10,0 C 18,2 C 15,0 km/h (3 Bft) 94,92 %
13.06.2017 03:00 18,6 C 23,9 C 58 % 1015,1 hPa 0,0 l/m 7,2 km/h (2 Bft) W-SW 0,00 h 0,076 mm 0,0 UV-I 0 W/m 10,1 C 18,2 C 11,2 km/h (2 Bft) 97,78 %
13.06.2017 04:00 17,6 C 23,7 C 62 % 1015,0 hPa 0,0 l/m 6,1 km/h (2 Bft) W-SW 0,00 h 0,051 mm 0,0 UV-I 4 W/m 10,2 C 17,5 C 9,5 km/h (2 Bft) 96,59 %
13.06.2017 05:00 16,9 C 23,4 C 66 % 1015,0 hPa 0,0 l/m 4,9 km/h (1 Bft) SW 0,07 h 0,051 mm 0,0 UV-I 24 W/m 10,5 C 16,9 C 7,3 km/h (2 Bft) 97,40 %
13.06.2017 06:00 16,9 C 23,4 C 70 % 1015,2 hPa 0,0 l/m 3,9 km/h (1 Bft) SW 0,50 h 0,051 mm 0,0 UV-I 115 W/m 11,4 C 16,9 C 5,4 km/h (1 Bft) 94,42 %
13.06.2017 07:00 18,6 C 23,3 C 65 % 1015,4 hPa 0,0 l/m 5,0 km/h (1 Bft) W-SW 0,90 h 0,076 mm 0,7 UV-I 284 W/m 12,0 C 18,6 C 8,5 km/h (2 Bft) 97,62 %
13.06.2017 08:00 19,5 C 23,3 C 59 % 1015,5 hPa 0,0 l/m 5,7 km/h (1 Bft) W-SW 0,53 h 0,203 mm 1,3 UV-I 301 W/m 11,4 C 19,4 C 10,8 km/h (2 Bft) 96,78 %
13.06.2017 09:00 21,0 C 23,3 C 55 % 1015,4 hPa 0,0 l/m 7,5 km/h (2 Bft) SW 0,77 h 0,203 mm 2,9 UV-I 549 W/m 11,5 C 20,4 C 13,0 km/h (3 Bft) 96,63 %
13.06.2017 10:00 22,5 C 23,7 C 48 % 1015,4 hPa 0,0 l/m 8,9 km/h (2 Bft) W 1,00 h 0,381 mm 4,7 UV-I 782 W/m 10,9 C 21,7 C 15,7 km/h (3 Bft) 95,81 %
13.06.2017 11:00 23,4 C 23,9 C 46 % 1015,2 hPa 0,0 l/m 11,6 km/h (2 Bft) W 1,00 h 0,534 mm 6,1 UV-I 865 W/m 11,2 C 22,2 C 19,6 km/h (3 Bft) 96,53 %
13.06.2017 12:00 24,3 C 24,0 C 46 % 1014,9 hPa 0,0 l/m 8,9 km/h (2 Bft) W-SW 1,00 h 0,609 mm 7,0 UV-I 911 W/m 11,8 C 23,6 C 17,8 km/h (3 Bft) 95,36 %
13.06.2017 13:00 24,9 C 24,4 C 45 % 1014,7 hPa 0,0 l/m 9,8 km/h (2 Bft) SW 1,00 h 0,635 mm 7,1 UV-I 915 W/m 12,1 C 24,1 C 18,8 km/h (3 Bft) 95,52 %
13.06.2017 14:00 25,4 C 24,9 C 42 % 1014,3 hPa 0,0 l/m 10,9 km/h (2 Bft) W-SW 1,00 h 0,661 mm 6,4 UV-I 872 W/m 11,4 C 24,5 C 20,7 km/h (4 Bft) 95,45 %
13.06.2017 15:00 26,0 C 25,0 C 39 % 1013,9 hPa 0,0 l/m 8,8 km/h (2 Bft) W 1,00 h 0,635 mm 5,0 UV-I 776 W/m 10,9 C 25,5 C 16,9 km/h (3 Bft) 98,28 %
13.06.2017 16:00 26,3 C 25,3 C 39 % 1013,4 hPa 0,0 l/m 7,6 km/h (2 Bft) W-SW 1,00 h 0,584 mm 3,4 UV-I 643 W/m 11,0 C 26,0 C 14,4 km/h (3 Bft) 97,10 %
13.06.2017 17:00 25,4 C 25,6 C 39 % 1013,3 hPa 0,0 l/m 5,2 km/h (1 Bft) W 0,63 h 0,482 mm 1,7 UV-I 388 W/m 10,6 C 25,4 C 11,8 km/h (2 Bft) 95,23 %
13.06.2017 18:00 24,8 C 25,6 C 42 % 1013,3 hPa 0,0 l/m 3,7 km/h (1 Bft) W-NW 0,87 h 0,305 mm 0,9 UV-I 293 W/m 11,0 C 24,7 C 8,7 km/h (2 Bft) 96,40 %
13.06.2017 19:00 22,5 C 25,4 C 49 % 1013,3 hPa 0,0 l/m 1,6 km/h (1 Bft) W 0,23 h 0,203 mm 0,0 UV-I 80 W/m 11,3 C 22,5 C 4,6 km/h (1 Bft) 96,73 %
13.06.2017 20:00 21,8 C 25,0 C 51 % 1013,6 hPa 0,0 l/m 2,0 km/h (1 Bft) W 0,77 h 0,077 mm 0,0 UV-I 44 W/m 11,3 C 21,8 C 5,6 km/h (1 Bft) 97,10 %
13.06.2017 21:00 20,0 C 25,0 C 53 % 1014,3 hPa 0,0 l/m 3,9 km/h (1 Bft) W 0,00 h 0,050 mm 0,0 UV-I 6 W/m 10,2 C 20,0 C 8,4 km/h (2 Bft) 94,99 %
13.06.2017 22:00 17,9 C 25,0 C 63 % 1014,8 hPa 0,0 l/m 1,8 km/h (1 Bft) S 0,00 h 0,026 mm 0,0 UV-I 0 W/m 10,7 C 17,9 C 3,6 km/h (1 Bft) 96,64 %
13.06.2017 23:00 16,7 C 25,0 C 69 % 1015,2 hPa 0,0 l/m 1,4 km/h (1 Bft) S 0,00 h 0,025 mm 0,0 UV-I 0 W/m 11,0 C 16,7 C 3,3 km/h (1 Bft) 96,72 %
14.06.2017 00:00 15,7 C 25,1 C 74 % 1015,4 hPa 0,0 l/m 0,8 km/h (0 Bft) S 0,00 h 0,000 mm 0,0 UV-I 0 W/m 11,1 C 15,7 C 2,1 km/h (1 Bft) 93,13 %
14.06.2017 01:00 14,7 C 25,0 C 77 % 1015,5 hPa 0,0 l/m 1,5 km/h (1 Bft) S 0,00 h 0,000 mm 0,0 UV-I 0 W/m 10,8 C 14,6 C 3,3 km/h (1 Bft) 95,74 %
14.06.2017 02:00 13,7 C 25,5 C 82 % 1015,8 hPa 0,0 l/m 2,4 km/h (1 Bft) O 0,00 h 0,000 mm 0,0 UV-I 0 W/m 10,7 C 13,6 C 4,1 km/h (1 Bft) 96,14 %
14.06.2017 03:00 13,7 C 26,1 C 76 % 1016,0 hPa 0,0 l/m 3,0 km/h (1 Bft) O 0,00 h 0,000 mm 0,0 UV-I 0 W/m 9,6 C 13,7 C 4,9 km/h (1 Bft) 97,42 %
14.06.2017 04:00 13,5 C 25,7 C 74 % 1016,3 hPa 0,0 l/m 4,8 km/h (1 Bft) O 0,00 h 0,025 mm 0,0 UV-I 6 W/m 8,9 C 13,4 C 7,3 km/h (2 Bft) 93,47 %
14.06.2017 05:00 13,3 C 25,6 C 75 % 1016,5 hPa 0,0 l/m 3,1 km/h (1 Bft) O-NO 0,57 h 0,026 mm 0,0 UV-I 31 W/m 8,9 C 13,3 C 5,1 km/h (1 Bft) 98,23 %
14.06.2017 06:00 13,7 C 23,9 C 77 % 1017,0 hPa 0,0 l/m 3,6 km/h (1 Bft) O-NO 0,77 h 0,025 mm 0,0 UV-I 130 W/m 9,7 C 13,6 C 6,0 km/h (2 Bft) 95,52 %
14.06.2017 07:00 16,2 C 23,3 C 70 % 1017,2 hPa 0,0 l/m 5,9 km/h (2 Bft) N-NO 1,00 h 0,076 mm 0,7 UV-I 321 W/m 10,8 C 15,8 C 10,0 km/h (2 Bft) 96,29 %
14.06.2017 08:00 17,9 C 23,4 C 60 % 1017,5 hPa 0,0 l/m 12,2 km/h (2 Bft) NO 1,00 h 0,204 mm 1,6 UV-I 500 W/m 10,0 C 15,7 C 18,2 km/h (3 Bft) 98,11 %
14.06.2017 09:00 19,1 C 23,9 C 56 % 1017,4 hPa 0,0 l/m 11,2 km/h (2 Bft) O-NO 1,00 h 0,355 mm 2,8 UV-I 635 W/m 10,0 C 17,2 C 17,3 km/h (3 Bft) 99,10 %
14.06.2017 10:00 20,1 C 23,9 C 53 % 1017,1 hPa 0,0 l/m 8,3 km/h (2 Bft) NO 1,00 h 0,432 mm 4,2 UV-I 742 W/m 10,3 C 19,2 C 13,6 km/h (3 Bft) 97,12 %
14.06.2017 11:00 21,1 C 23,9 C 52 % 1016,9 hPa 0,0 l/m 5,6 km/h (1 Bft) O-NO 1,00 h 0,483 mm 5,2 UV-I 796 W/m 10,9 C 20,8 C 10,7 km/h (2 Bft) 96,98 %
14.06.2017 12:00 21,7 C 24,0 C 51 % 1016,8 hPa 0,0 l/m 3,3 km/h (1 Bft) N-NO 1,00 h 0,508 mm 5,5 UV-I 757 W/m 11,1 C 21,7 C 7,4 km/h (2 Bft) 96,76 %
14.06.2017 13:00 22,7 C 24,4 C 48 % 1016,5 hPa 0,0 l/m 2,9 km/h (1 Bft) N-NO 1,00 h 0,482 mm 6,0 UV-I 816 W/m 11,0 C 22,7 C 6,8 km/h (2 Bft) 98,20 %
14.06.2017 14:00 23,8 C 24,7 C 44 % 1016,0 hPa 0,0 l/m 4,2 km/h (1 Bft) N-NO 1,00 h 0,534 mm 5,8 UV-I 855 W/m 10,8 C 23,7 C 7,7 km/h (2 Bft) 96,26 %
14.06.2017 15:00 24,6 C 25,0 C 42 % 1015,5 hPa 0,0 l/m 3,4 km/h (1 Bft) W-SW 1,00 h 0,558 mm 4,6 UV-I 760 W/m 10,9 C 24,5 C 7,8 km/h (2 Bft) 96,73 %
14.06.2017 16:00 25,1 C 25,1 C 42 % 1015,1 hPa 0,0 l/m 4,8 km/h (1 Bft) SW 1,00 h 0,508 mm 3,2 UV-I 639 W/m 11,3 C 25,0 C 9,1 km/h (2 Bft) 98,44 %
14.06.2017 17:00 25,4 C 25,6 C 41 % 1014,6 hPa 0,0 l/m 4,4 km/h (1 Bft) W-SW 1,00 h 0,458 mm 1,9 UV-I 488 W/m 11,2 C 25,3 C 8,2 km/h (2 Bft) 97,52 %
14.06.2017 18:00 25,2 C 25,6 C 42 % 1014,2 hPa 0,0 l/m 2,0 km/h (1 Bft) W 1,00 h 0,355 mm 0,9 UV-I 310 W/m 11,2 C 25,2 C 4,3 km/h (1 Bft) 97,19 %
14.06.2017 19:00 24,8 C 25,6 C 43 % 1014,1 hPa 0,0 l/m 1,8 km/h (1 Bft) NO 1,00 h 0,229 mm 0,4 UV-I 148 W/m 11,5 C 24,8 C 3,3 km/h (1 Bft) 97,24 %
14.06.2017 20:00 22,8 C 25,6 C 54 % 1013,9 hPa 0,0 l/m 0,1 km/h (0 Bft) NO 0,43 h 0,127 mm 0,0 UV-I 39 W/m 12,9 C 22,8 C 0,4 km/h (0 Bft) 98,45 %
14.06.2017 21:00 19,4 C 25,1 C 65 % 1014,2 hPa 0,0 l/m 0,4 km/h (0 Bft) NO 0,00 h 0,025 mm 0,0 UV-I 6 W/m 12,5 C 19,4 C 0,8 km/h (0 Bft) 97,08 %
14.06.2017 22:00 17,6 C 25,0 C 71 % 1014,7 hPa 0,0 l/m 1,0 km/h (0 Bft) NO 0,00 h 0,000 mm 0,0 UV-I 0 W/m 12,2 C 17,6 C 1,9 km/h (1 Bft) 96,31 %
14.06.2017 23:00 17,2 C 25,0 C 70 % 1014,8 hPa 0,0 l/m 2,2 km/h (1 Bft) O-NO 0,00 h 0,000 mm 0,0 UV-I 0 W/m 11,6 C 17,2 C 3,6 km/h (1 Bft) 96,58 %
15.06.2017 00:00 17,0 C 25,0 C 68 % 1014,9 hPa 0,0 l/m 5,8 km/h (2 Bft) O-NO 0,00 h 0,000 mm 0,0 UV-I 0 W/m 10,9 C 16,7 C 8,9 km/h (2 Bft) 98,30 %
15.06.2017 01:00 16,9 C 24,7 C 68 % 1015,1 hPa 0,0 l/m 8,8 km/h (2 Bft) O-NO 0,00 h 0,025 mm 0,0 UV-I 0 W/m 11,0 C 15,7 C 13,7 km/h (3 Bft) 96,42 %
15.06.2017 02:00 15,2 C 24,6 C 73 % 1015,2 hPa 0,0 l/m 6,0 km/h (2 Bft) NO 0,00 h 0,051 mm 0,0 UV-I 0 W/m 10,4 C 15,1 C 8,7 km/h (2 Bft) 96,53 %
15.06.2017 03:00 14,5 C 24,5 C 74 % 1014,9 hPa 0,0 l/m 5,5 km/h (1 Bft) O-NO 0,00 h 0,026 mm 0,0 UV-I 0 W/m 10,0 C 14,5 C 8,0 km/h (2 Bft) 97,07 %
15.06.2017 04:00 13,9 C 24,4 C 75 % 1014,9 hPa 0,0 l/m 1,7 km/h (1 Bft) O-NO 0,00 h 0,025 mm 0,0 UV-I 5 W/m 9,6 C 13,9 C 2,9 km/h (1 Bft) 97,94 %
15.06.2017 05:00 12,8 C 24,5 C 80 % 1015,2 hPa 0,0 l/m 1,3 km/h (1 Bft) NO 0,73 h 0,000 mm 0,0 UV-I 35 W/m 9,5 C 12,8 C 2,4 km/h (1 Bft) 95,60 %
15.06.2017 06:00 13,7 C 23,9 C 80 % 1015,9 hPa 0,0 l/m 0,9 km/h (0 Bft) NO 0,80 h 0,025 mm 0,0 UV-I 133 W/m 10,3 C 13,7 C 1,7 km/h (1 Bft) 96,93 %
15.06.2017 07:00 16,5 C 23,7 C 69 % 1016,2 hPa 0,0 l/m 5,3 km/h (1 Bft) NO 1,00 h 0,077 mm 0,7 UV-I 308 W/m 10,9 C 16,4 C 8,3 km/h (2 Bft) 97,66 %
15.06.2017 08:00 18,6 C 23,9 C 61 % 1016,2 hPa 0,0 l/m 11,4 km/h (2 Bft) O-NO 1,00 h 0,203 mm 1,7 UV-I 479 W/m 11,0 C 16,7 C 17,1 km/h (3 Bft) 95,81 %
15.06.2017 09:00 20,3 C 23,9 C 57 % 1016,2 hPa 0,0 l/m 7,0 km/h (2 Bft) NO 1,00 h 0,330 mm 3,0 UV-I 630 W/m 11,5 C 19,8 C 12,1 km/h (2 Bft) 96,74 %
15.06.2017 10:00 22,1 C 23,9 C 55 % 1016,2 hPa 0,0 l/m 5,7 km/h (1 Bft) O-NO 1,00 h 0,406 mm 4,5 UV-I 768 W/m 12,6 C 22,0 C 10,0 km/h (2 Bft) 97,71 %
15.06.2017 11:00 23,9 C 23,9 C 50 % 1016,0 hPa 0,0 l/m 6,1 km/h (2 Bft) NO 1,00 h 0,508 mm 5,9 UV-I 863 W/m 12,9 C 23,5 C 11,2 km/h (2 Bft) 96,17 %
15.06.2017 12:00 25,3 C 23,9 C 46 % 1015,8 hPa 0,0 l/m 6,4 km/h (2 Bft) NO 1,00 h 0,585 mm 6,8 UV-I 914 W/m 12,7 C 25,0 C 11,9 km/h (2 Bft) 93,94 %
15.06.2017 13:00 26,4 C 23,9 C 40 % 1015,4 hPa 0,0 l/m 5,6 km/h (1 Bft) N-NO 1,00 h 0,635 mm 6,8 UV-I 918 W/m 11,6 C 26,2 C 10,0 km/h (2 Bft) 95,80 %
15.06.2017 14:00 27,3 C 25,5 C 34 % 1015,0 hPa 0,0 l/m 5,8 km/h (2 Bft) S-SW 1,00 h 0,635 mm 6,1 UV-I 872 W/m 10,0 C 27,2 C 10,8 km/h (2 Bft) 97,47 %
15.06.2017 15:00 27,8 C 25,6 C 34 % 1014,6 hPa 0,0 l/m 5,0 km/h (1 Bft) S-SO 1,00 h 0,635 mm 4,7 UV-I 772 W/m 10,3 C 27,7 C 9,8 km/h (2 Bft) 95,61 %
15.06.2017 16:00 28,1 C 26,0 C 35 % 1014,1 hPa 0,0 l/m 3,4 km/h (1 Bft) N-NO 1,00 h 0,558 mm 3,2 UV-I 635 W/m 11,0 C 28,0 C 6,9 km/h (2 Bft) 97,41 %
15.06.2017 17:00 28,1 C 26,1 C 35 % 1013,5 hPa 0,0 l/m 3,1 km/h (1 Bft) NO 1,00 h 0,458 mm 1,9 UV-I 474 W/m 11,3 C 28,1 C 6,0 km/h (2 Bft) 97,01 %
15.06.2017 18:00 27,6 C 26,1 C 39 % 1013,1 hPa 0,0 l/m 2,1 km/h (1 Bft) N-NO 1,00 h 0,355 mm 0,9 UV-I 301 W/m 12,4 C 27,6 C 4,2 km/h (1 Bft) 95,83 %
15.06.2017 19:00 26,5 C 26,1 C 45 % 1013,0 hPa 0,0 l/m 0,9 km/h (0 Bft) N-NW 1,00 h 0,229 mm 0,4 UV-I 143 W/m 13,6 C 26,5 C 2,8 km/h (1 Bft) 96,32 %
15.06.2017 20:00 24,7 C 26,1 C 50 % 1013,0 hPa 0,0 l/m 1,1 km/h (1 Bft) N 0,30 h 0,101 mm 0,0 UV-I 38 W/m 13,6 C 24,7 C 2,1 km/h (1 Bft) 97,01 %
15.06.2017 21:00 21,4 C 26,0 C 60 % 1013,1 hPa 0,0 l/m 0,2 km/h (0 Bft) NO 0,00 h 0,051 mm 0,0 UV-I 5 W/m 13,3 C 21,4 C 1,1 km/h (1 Bft) 98,21 %
15.06.2017 22:00 20,3 C 25,6 C 62 % 1012,9 hPa 0,0 l/m 1,4 km/h (1 Bft) NO 0,00 h 0,026 mm 0,0 UV-I 0 W/m 12,7 C 20,3 C 2,9 km/h (1 Bft) 95,64 %
15.06.2017 23:00 19,7 C 25,6 C 65 % 1012,7 hPa 0,0 l/m 3,9 km/h (1 Bft) SO 0,00 h 0,025 mm 0,0 UV-I 0 W/m 13,0 C 19,7 C 5,9 km/h (2 Bft) 97,75 %
16.06.2017 00:00 19,3 C 25,6 C 67 % 1012,4 hPa 0,0 l/m 4,4 km/h (1 Bft) S-SW 0,00 h 0,000 mm 0,0 UV-I 0 W/m 12,9 C 19,3 C 6,6 km/h (2 Bft) 96,91 %
16.06.2017 01:00 19,3 C 25,1 C 66 % 1012,0 hPa 0,0 l/m 3,1 km/h (1 Bft) S-SW 0,00 h 0,025 mm 0,0 UV-I 0 W/m 12,8 C 19,3 C 5,6 km/h (1 Bft) 98,23 %
16.06.2017 02:00 18,9 C 25,0 C 72 % 1012,2 hPa 0,0 l/m 3,5 km/h (1 Bft) O 0,00 h 0,026 mm 0,0 UV-I 0 W/m 13,7 C 18,6 C 7,4 km/h (2 Bft) 94,82 %
16.06.2017 03:00 19,0 C 25,0 C 82 % 1013,0 hPa 0,4 l/m 3,7 km/h (1 Bft) W 0,00 h 0,025 mm 0,0 UV-I 0 W/m 15,8 C 18,8 C 7,7 km/h (2 Bft) 97,75 %
16.06.2017 04:00 18,3 C 25,0 C 89 % 1013,4 hPa 0,0 l/m 2,9 km/h (1 Bft) SO 0,00 h 0,026 mm 0,0 UV-I 4 W/m 16,4 C 18,2 C 5,3 km/h (1 Bft) 97,19 %
16.06.2017 05:00 17,8 C 25,0 C 91 % 1013,4 hPa 0,0 l/m 0,5 km/h (0 Bft) SO 0,07 h 0,000 mm 0,0 UV-I 19 W/m 16,4 C 17,8 C 1,9 km/h (1 Bft) 97,52 %
16.06.2017 06:00 18,8 C 25,0 C 90 % 1013,4 hPa 0,0 l/m 1,7 km/h (1 Bft) S 0,17 h 0,025 mm 0,0 UV-I 65 W/m 17,1 C 18,8 C 3,7 km/h (1 Bft) 95,53 %
16.06.2017 07:00 19,5 C 24,6 C 87 % 1014,2 hPa 0,0 l/m 10,3 km/h (2 Bft) SW 0,00 h 0,051 mm 0,6 UV-I 75 W/m 17,2 C 18,0 C 16,2 km/h (3 Bft) 99,64 %
16.06.2017 08:00 20,8 C 24,6 C 82 % 1014,7 hPa 0,2 l/m 14,6 km/h (3 Bft) W-SW 0,53 h 0,076 mm 1,2 UV-I 327 W/m 17,5 C 18,4 C 22,8 km/h (4 Bft) 96,78 %
16.06.2017 09:00 21,4 C 24,4 C 78 % 1014,9 hPa 0,0 l/m 14,1 km/h (3 Bft) W-SW 0,00 h 0,229 mm 1,2 UV-I 242 W/m 17,3 C 19,2 C 22,2 km/h (4 Bft) 96,72 %
16.06.2017 10:00 22,1 C 24,4 C 71 % 1015,1 hPa 0,0 l/m 13,1 km/h (3 Bft) W-SW 0,00 h 0,177 mm 1,9 UV-I 308 W/m 16,4 C 20,3 C 20,8 km/h (4 Bft) 94,14 %
16.06.2017 11:00 23,2 C 24,4 C 56 % 1015,0 hPa 0,0 l/m 16,6 km/h (3 Bft) W-SW 0,43 h 0,254 mm 3,7 UV-I 544 W/m 13,9 C 20,9 C 28,3 km/h (4 Bft) 96,99 %
16.06.2017 12:00 24,5 C 24,9 C 50 % 1014,7 hPa 0,0 l/m 16,2 km/h (3 Bft) W-SW 0,57 h 0,458 mm 5,4 UV-I 675 W/m 13,4 C 22,6 C 27,8 km/h (4 Bft) 95,76 %
16.06.2017 13:00 25,6 C 25,0 C 43 % 1014,2 hPa 0,0 l/m 22,0 km/h (4 Bft) W 0,83 h 0,584 mm 5,9 UV-I 915 W/m 12,1 C 23,3 C 37,9 km/h (5 Bft) 98,10 %
16.06.2017 14:00 26,2 C 25,2 C 36 % 1013,8 hPa 0,0 l/m 19,0 km/h (3 Bft) W 1,00 h 0,762 mm 5,5 UV-I 906 W/m 9,9 C 24,3 C 32,7 km/h (5 Bft) 93,97 %
16.06.2017 15:00 26,1 C 25,6 C 37 % 1013,6 hPa 0,0 l/m 17,5 km/h (3 Bft) W-SW 0,97 h 0,736 mm 4,2 UV-I 775 W/m 10,2 C 24,4 C 30,9 km/h (5 Bft) 97,49 %
16.06.2017 16:00 26,1 C 25,6 C 33 % 1013,5 hPa 0,0 l/m 16,6 km/h (3 Bft) W-SW 1,00 h 0,661 mm 2,9 UV-I 620 W/m 8,4 C 24,5 C 29,5 km/h (5 Bft) 96,38 %
16.06.2017 17:00 25,2 C 25,6 C 29 % 1013,7 hPa 0,0 l/m 14,1 km/h (3 Bft) W-SW 0,90 h 0,559 mm 1,6 UV-I 439 W/m 6,0 C 23,7 C 26,6 km/h (4 Bft) 96,73 %
16.06.2017 18:00 24,3 C 25,6 C 33 % 1014,1 hPa 0,0 l/m 13,2 km/h (3 Bft) W 0,90 h 0,431 mm 0,8 UV-I 312 W/m 7,1 C 22,9 C 26,6 km/h (4 Bft) 94,03 %
16.06.2017 19:00 23,1 C 25,6 C 39 % 1014,7 hPa 0,0 l/m 9,8 km/h (2 Bft) W 0,80 h 0,331 mm 0,4 UV-I 142 W/m 8,5 C 22,2 C 20,5 km/h (4 Bft) 97,34 %
16.06.2017 20:00 21,5 C 25,1 C 44 % 1015,4 hPa 0,0 l/m 9,0 km/h (2 Bft) W-SW 0,60 h 0,177 mm 0,0 UV-I 40 W/m 8,7 C 20,6 C 18,2 km/h (3 Bft) 97,29 %
16.06.2017 21:00 20,3 C 25,0 C 50 % 1016,3 hPa 0,0 l/m 10,3 km/h (2 Bft) W-SW 0,00 h 0,102 mm 0,0 UV-I 5 W/m 9,5 C 18,9 C 19,2 km/h (3 Bft) 96,34 %
16.06.2017 22:00 19,8 C 25,0 C 51 % 1017,0 hPa 0,0 l/m 13,3 km/h (3 Bft) W 0,00 h 0,076 mm 0,0 UV-I 0 W/m 9,3 C 17,4 C 21,9 km/h (4 Bft) 96,01 %
16.06.2017 23:00 19,3 C 24,5 C 52 % 1017,7 hPa 0,0 l/m 14,0 km/h (3 Bft) W-SW 0,00 h 0,102 mm 0,0 UV-I 0 W/m 9,1 C 16,6 C 22,6 km/h (4 Bft) 97,62 %
17.06.2017 00:00 18,9 C 24,4 C 53 % 1018,1 hPa 0,0 l/m 13,9 km/h (3 Bft) W-SW 0,00 h 0,000 mm 0,0 UV-I 0 W/m 9,0 C 16,2 C 22,1 km/h (4 Bft) 98,02 %
17.06.2017 01:00 18,3 C 24,2 C 54 % 1018,3 hPa 0,0 l/m 13,3 km/h (3 Bft) W-SW 0,00 h 0,102 mm 0,0 UV-I 0 W/m 8,8 C 15,7 C 22,7 km/h (4 Bft) 96,39 %
17.06.2017 02:00 17,6 C 23,9 C 56 % 1018,6 hPa 0,0 l/m 14,3 km/h (3 Bft) W-SW 0,00 h 0,076 mm 0,0 UV-I 0 W/m 8,8 C 14,6 C 24,2 km/h (4 Bft) 96,43 %
17.06.2017 03:00 16,7 C 23,9 C 59 % 1019,0 hPa 0,0 l/m 12,7 km/h (3 Bft) W-SW 0,00 h 0,076 mm 0,0 UV-I 0 W/m 8,6 C 14,0 C 21,0 km/h (4 Bft) 97,39 %
17.06.2017 04:00 16,1 C 23,6 C 62 % 1019,2 hPa 0,0 l/m 13,2 km/h (3 Bft) W-SW 0,00 h 0,076 mm 0,0 UV-I 4 W/m 8,8 C 13,1 C 21,3 km/h (4 Bft) 98,40 %
17.06.2017 05:00 15,8 C 23,3 C 64 % 1019,5 hPa 0,0 l/m 10,9 km/h (2 Bft) W-SW 0,00 h 0,076 mm 0,0 UV-I 13 W/m 8,9 C 13,7 C 17,8 km/h (3 Bft) 96,24 %
17.06.2017 06:00 15,7 C 23,3 C 65 % 1019,5 hPa 0,0 l/m 13,0 km/h (3 Bft) W-SW 0,00 h 0,051 mm 0,0 UV-I 48 W/m 9,2 C 12,8 C 20,5 km/h (4 Bft) 96,87 %
17.06.2017 07:00 15,8 C 23,3 C 66 % 1019,9 hPa 0,0 l/m 12,3 km/h (3 Bft) W-SW 0,03 h 0,076 mm 0,5 UV-I 140 W/m 9,4 C 13,1 C 20,6 km/h (4 Bft) 96,81 %
17.06.2017 08:00 16,4 C 23,3 C 65 % 1020,1 hPa 0,0 l/m 12,3 km/h (3 Bft) W-SW 0,47 h 0,127 mm 1,1 UV-I 290 W/m 9,7 C 13,9 C 22,0 km/h (4 Bft) 97,72 %
17.06.2017 09:00 16,8 C 23,3 C 63 % 1020,3 hPa 0,0 l/m 13,5 km/h (3 Bft) W-SW 0,20 h 0,229 mm 1,6 UV-I 337 W/m 9,6 C 13,9 C 23,2 km/h (4 Bft) 95,29 %
17.06.2017 10:00 17,5 C 23,3 C 55 % 1020,5 hPa 0,0 l/m 13,7 km/h (3 Bft) W 0,57 h 0,279 mm 3,4 UV-I 606 W/m 8,5 C 14,7 C 25,4 km/h (4 Bft) 98,00 %
17.06.2017 11:00 18,0 C 23,3 C 49 % 1020,6 hPa 0,0 l/m 15,5 km/h (3 Bft) W 0,50 h 0,407 mm 4,7 UV-I 610 W/m 7,3 C 14,8 C 26,9 km/h (4 Bft) 96,11 %
17.06.2017 12:00 18,8 C 23,3 C 46 % 1020,6 hPa 0,0 l/m 15,0 km/h (3 Bft) W-SW 0,47 h 0,482 mm 4,4 UV-I 592 W/m 7,1 C 15,9 C 26,9 km/h (4 Bft) 96,15 %
17.06.2017 13:00 19,1 C 23,3 C 46 % 1020,6 hPa 0,0 l/m 13,8 km/h (3 Bft) W-SW 0,37 h 0,458 mm 3,8 UV-I 450 W/m 7,3 C 16,6 C 25,1 km/h (4 Bft) 93,70 %
17.06.2017 14:00 19,9 C 23,3 C 46 % 1020,5 hPa 0,0 l/m 14,1 km/h (3 Bft) W-SW 0,70 h 0,381 mm 4,7 UV-I 780 W/m 7,9 C 17,6 C 24,5 km/h (4 Bft) 97,19 %
17.06.2017 15:00 20,7 C 23,7 C 43 % 1020,2 hPa 0,0 l/m 13,9 km/h (3 Bft) W 0,70 h 0,558 mm 3,9 UV-I 646 W/m 7,7 C 18,4 C 25,0 km/h (4 Bft) 96,17 %
17.06.2017 16:00 20,2 C 23,9 C 45 % 1020,1 hPa 0,0 l/m 13,9 km/h (3 Bft) W-SW 0,40 h 0,483 mm 2,1 UV-I 445 W/m 7,9 C 17,8 C 24,3 km/h (4 Bft) 96,06 %
17.06.2017 17:00 20,6 C 23,9 C 44 % 1020,1 hPa 0,0 l/m 13,0 km/h (3 Bft) W-SW 0,68 h 0,356 mm 1,6 UV-I 409 W/m 7,8 C 18,5 C 23,5 km/h (4 Bft) 94,91 %
17.06.2017 18:00 20,6 C 23,9 C 43 % 1020,0 hPa 0,0 l/m 14,0 km/h (3 Bft) W-SW 0,95 h 0,330 mm 0,9 UV-I 321 W/m 7,5 C 18,3 C 24,3 km/h (4 Bft) 95,17 %
17.06.2017 19:00 20,1 C 23,8 C 44 % 1020,2 hPa 0,0 l/m 11,8 km/h (2 Bft) W 1,00 h 0,305 mm 0,4 UV-I 161 W/m 7,3 C 18,3 C 21,1 km/h (4 Bft) 95,97 %
17.06.2017 20:00 18,6 C 23,3 C 48 % 1020,6 hPa 0,0 l/m 9,5 km/h (2 Bft) W-SW 0,87 h 0,177 mm 0,0 UV-I 45 W/m 7,4 C 17,4 C 17,5 km/h (3 Bft) 97,66 %
17.06.2017 21:00 17,1 C 23,3 C 53 % 1021,3 hPa 0,0 l/m 8,2 km/h (2 Bft) W-SW 0,00 h 0,102 mm 0,0 UV-I 7 W/m 7,5 C 16,3 C 13,2 km/h (3 Bft) 97,13 %
17.06.2017 22:00 15,8 C 23,3 C 60 % 1021,9 hPa 0,0 l/m 7,1 km/h (2 Bft) W-SW 0,00 h 0,051 mm 0,0 UV-I 0 W/m 8,0 C 15,4 C 10,7 km/h (2 Bft) 95,52 %
17.06.2017 23:00 15,7 C 22,8 C 60 % 1022,4 hPa 0,0 l/m 7,3 km/h (2 Bft) W 0,00 h 0,051 mm 0,0 UV-I 0 W/m 8,0 C 15,1 C 11,7 km/h (2 Bft) 97,67 %
18.06.2017 00:00 15,1 C 22,8 C 62 % 1022,6 hPa 0,0 l/m 5,2 km/h (1 Bft) W-SW 0,00 h 0,000 mm 0,0 UV-I 0 W/m 8,0 C 15,0 C 8,5 km/h (2 Bft) 97,15 %
18.06.2017 01:00 13,1 C 22,8 C 72 % 1022,7 hPa 0,0 l/m 2,6 km/h (1 Bft) W-SW 0,00 h 0,025 mm 0,0 UV-I 0 W/m 8,1 C 13,1 C 4,1 km/h (1 Bft) 96,15 %
18.06.2017 02:00 12,0 C 22,6 C 76 % 1022,7 hPa 0,0 l/m 2,8 km/h (1 Bft) W-SW 0,00 h 0,026 mm 0,0 UV-I 0 W/m 7,9 C 12,0 C 4,7 km/h (1 Bft) 97,88 %
18.06.2017 03:00 11,2 C 22,2 C 80 % 1022,8 hPa 0,0 l/m 3,0 km/h (1 Bft) S 0,00 h 0,025 mm 0,0 UV-I 0 W/m 7,7 C 11,2 C 5,3 km/h (1 Bft) 97,03 %
18.06.2017 04:00 10,7 C 22,2 C 82 % 1023,0 hPa 0,0 l/m 3,2 km/h (1 Bft) S 0,00 h 0,000 mm 0,0 UV-I 5 W/m 7,7 C 10,7 C 5,4 km/h (1 Bft) 96,55 %
18.06.2017 05:00 11,1 C 22,2 C 81 % 1023,4 hPa 0,0 l/m 5,1 km/h (1 Bft) S-SW 0,43 h 0,000 mm 0,0 UV-I 34 W/m 8,0 C 11,1 C 7,9 km/h (2 Bft) 96,96 %
18.06.2017 06:00 12,9 C 22,5 C 78 % 1023,7 hPa 0,0 l/m 4,0 km/h (1 Bft) S-SW 0,80 h 0,026 mm 0,0 UV-I 143 W/m 9,2 C 12,9 C 6,3 km/h (2 Bft) 98,37 %
18.06.2017 07:00 15,2 C 22,2 C 72 % 1024,0 hPa 0,0 l/m 5,7 km/h (1 Bft) W 1,00 h 0,076 mm 0,7 UV-I 315 W/m 10,2 C 14,9 C 10,0 km/h (2 Bft) 95,53 %
18.06.2017 08:00 16,4 C 22,2 C 66 % 1024,2 hPa 0,0 l/m 5,7 km/h (1 Bft) W-SW 0,67 h 0,178 mm 1,4 UV-I 346 W/m 10,1 C 16,2 C 10,1 km/h (2 Bft) 98,10 %
18.06.2017 09:00 18,2 C 22,2 C 59 % 1024,2 hPa 0,0 l/m 3,5 km/h (1 Bft) W 1,00 h 0,203 mm 3,0 UV-I 619 W/m 10,1 C 18,2 C 6,8 km/h (2 Bft) 97,63 %
18.06.2017 10:00 19,3 C 22,2 C 54 % 1024,1 hPa 0,0 l/m 3,1 km/h (1 Bft) O 0,63 h 0,355 mm 3,7 UV-I 557 W/m 9,8 C 19,3 C 6,6 km/h (2 Bft) 95,89 %
18.06.2017 11:00 19,7 C 22,2 C 51 % 1024,1 hPa 0,0 l/m 2,3 km/h (1 Bft) W-NW 0,00 h 0,331 mm 2,8 UV-I 390 W/m 9,2 C 19,7 C 5,6 km/h (1 Bft) 96,04 %
18.06.2017 12:00 20,2 C 22,4 C 48 % 1024,0 hPa 0,0 l/m 2,9 km/h (1 Bft) W-NW 0,50 h 0,254 mm 4,4 UV-I 509 W/m 8,9 C 20,2 C 6,4 km/h (2 Bft) 97,60 %
18.06.2017 13:00 20,9 C 22,8 C 47 % 1023,8 hPa 0,0 l/m 2,3 km/h (1 Bft) NO 0,50 h 0,330 mm 4,6 UV-I 603 W/m 9,3 C 20,9 C 5,6 km/h (1 Bft) 97,10 %
18.06.2017 14:00 22,5 C 22,8 C 43 % 1023,4 hPa 0,0 l/m 3,9 km/h (1 Bft) N-NO 1,00 h 0,381 mm 6,1 UV-I 867 W/m 9,3 C 22,5 C 8,3 km/h (2 Bft) 95,66 %
18.06.2017 15:00 23,2 C 23,3 C 41 % 1023,0 hPa 0,0 l/m 4,2 km/h (1 Bft) N-NO 1,00 h 0,559 mm 4,9 UV-I 815 W/m 9,3 C 23,2 C 9,4 km/h (2 Bft) 96,50 %
18.06.2017 16:00 23,5 C 23,3 C 40 % 1022,5 hPa 0,0 l/m 3,4 km/h (1 Bft) O-NO 1,00 h 0,533 mm 3,4 UV-I 668 W/m 9,1 C 23,4 C 6,7 km/h (2 Bft) 96,87 %
18.06.2017 17:00 23,7 C 23,9 C 40 % 1022,2 hPa 0,0 l/m 3,9 km/h (1 Bft) NO 1,00 h 0,432 mm 2,0 UV-I 515 W/m 9,4 C 23,7 C 7,3 km/h (2 Bft) 98,17 %
18.06.2017 18:00 23,4 C 23,9 C 42 % 1021,9 hPa 0,0 l/m 2,4 km/h (1 Bft) O-NO 0,77 h 0,355 mm 0,9 UV-I 278 W/m 9,6 C 23,4 C 4,9 km/h (1 Bft) 95,63 %
18.06.2017 19:00 22,9 C 23,8 C 42 % 1021,7 hPa 0,0 l/m 3,0 km/h (1 Bft) O-NO 0,93 h 0,204 mm 0,5 UV-I 146 W/m 9,4 C 22,9 C 5,1 km/h (1 Bft) 96,70 %
18.06.2017 20:00 21,2 C 23,3 C 50 % 1021,8 hPa 0,0 l/m 1,6 km/h (1 Bft) SO 0,93 h 0,127 mm 0,0 UV-I 45 W/m 10,3 C 21,2 C 3,3 km/h (1 Bft) 96,02 %
18.06.2017 21:00 17,9 C 23,3 C 62 % 1021,9 hPa 0,0 l/m 1,2 km/h (1 Bft) SO 0,00 h 0,050 mm 0,0 UV-I 7 W/m 10,5 C 17,9 C 2,2 km/h (1 Bft) 96,79 %
18.06.2017 22:00 16,4 C 23,3 C 67 % 1022,3 hPa 0,0 l/m 0,2 km/h (0 Bft) SO 0,00 h 0,026 mm 0,0 UV-I 0 W/m 10,3 C 16,4 C 0,7 km/h (0 Bft) 94,17 %
18.06.2017 23:00 14,8 C 23,3 C 72 % 1022,5 hPa 0,0 l/m 0,8 km/h (0 Bft) SO 0,00 h 0,000 mm 0,0 UV-I 0 W/m 9,8 C 14,8 C 1,9 km/h (1 Bft) 96,49 %
Min-Datum _ 18.06.17 18.06.17 16.06.17 16.06.17 - 12.06.17 - - - - - 16.06.17 18.06.17 12.06.17 12.06.17
_ Min-Zeit 04:36 07:16 17:30 02:00 - 00:08 - - - - - 18:02 05:12 00:08 00:04
Minimum _ 10,4 C 21,7 C 27 % 1011,5 hPa - 0,0 km/h (0 Bft) - - - - - 4,6 C 10,3 C 0,0 km/h (0 Bft) 9,09 %
Max-Datum _ 15.06.17 15.06.17 16.06.17 18.06.17 16.06.17 16.06.17 - 12.06.17 16.06.17 18.06.17 17.06.17 12.06.17 15.06.17 16.06.17 12.06.17
_ Max-Zeit 17:28 14:08 05:50 08:16 03:24 14:00 - 16:23 14:00 12:34 11:26 15:36 17:28 14:00 01:08
Maximum _ 28,6 C 26,7 C 93 % 1024,4 hPa 0,4 l/m 31,2 km/h
W (5 Bft)
- 0,05 h 0,762 mm 8,1 UV-I 1152 W/m 18,6 C 28,6 C 57,9 km/h
W-SW (7 Bft)
100,00 %
Durchschnitt _ 20,0 C 24,3 C 59 % 1016,5 hPa #0,6 l/m 6,9 km/h (2 Bft) W-SW #77:23 h #37,288 mm 3,1 UV-I 384 W/m 11,2 C 19,3 C 12,0 km/h (2 Bft) 96,64 %